sensor_id;sensor_type;location;lat;lon;timestamp;temperature;humidity
316;DHT22;14128;48.686;9.738;2022-12-24T00:02:20;10.50;1.40
316;DHT22;14128;48.686;9.738;2022-12-24T00:04:47;10.50;1.40
316;DHT22;14128;48.686;9.738;2022-12-24T00:07:14;10.50;1.40
316;DHT22;14128;48.686;9.738;2022-12-24T00:09:41;10.40;1.40
316;DHT22;14128;48.686;9.738;2022-12-24T00:12:07;10.40;1.40
316;DHT22;14128;48.686;9.738;2022-12-24T00:14:34;10.40;1.40
316;DHT22;14128;48.686;9.738;2022-12-24T00:17:01;10.40;1.40
316;DHT22;14128;48.686;9.738;2022-12-24T00:19:29;10.40;1.40
316;DHT22;14128;48.686;9.738;2022-12-24T00:21:56;10.50;1.40
316;DHT22;14128;48.686;9.738;2022-12-24T00:24:23;10.50;1.40
316;DHT22;14128;48.686;9.738;2022-12-24T00:26:49;10.60;1.40
316;DHT22;14128;48.686;9.738;2022-12-24T00:29:16;10.60;1.40
316;DHT22;14128;48.686;9.738;2022-12-24T00:31:44;10.70;1.40
316;DHT22;14128;48.686;9.738;2022-12-24T00:34:10;10.70;1.40
316;DHT22;14128;48.686;9.738;2022-12-24T00:36:38;10.70;1.40
316;DHT22;14128;48.686;9.738;2022-12-24T00:39:05;10.70;1.40
316;DHT22;14128;48.686;9.738;2022-12-24T00:41:32;10.70;1.40
316;DHT22;14128;48.686;9.738;2022-12-24T00:44:00;10.80;1.40
316;DHT22;14128;48.686;9.738;2022-12-24T00:46:29;10.80;1.40
316;DHT22;14128;48.686;9.738;2022-12-24T00:48:56;10.80;1.40
316;DHT22;14128;48.686;9.738;2022-12-24T00:51:24;10.80;1.40
316;DHT22;14128;48.686;9.738;2022-12-24T00:53:52;10.80;1.40
316;DHT22;14128;48.686;9.738;2022-12-24T00:56:19;10.80;1.40
316;DHT22;14128;48.686;9.738;2022-12-24T00:58:46;10.80;1.40
316;DHT22;14128;48.686;9.738;2022-12-24T01:01:13;10.70;1.40
316;DHT22;14128;48.686;9.738;2022-12-24T01:03:40;10.60;1.40
316;DHT22;14128;48.686;9.738;2022-12-24T01:06:09;10.50;1.40
316;DHT22;14128;48.686;9.738;2022-12-24T01:08:35;10.50;1.40
316;DHT22;14128;48.686;9.738;2022-12-24T01:11:05;10.60;1.40
316;DHT22;14128;48.686;9.738;2022-12-24T01:13:33;10.60;1.40
316;DHT22;14128;48.686;9.738;2022-12-24T01:16:00;10.50;1.40
316;DHT22;14128;48.686;9.738;2022-12-24T01:18:27;10.50;1.40
316;DHT22;14128;48.686;9.738;2022-12-24T01:20:55;10.50;1.40
316;DHT22;14128;48.686;9.738;2022-12-24T01:23:23;10.40;1.40
316;DHT22;14128;48.686;9.738;2022-12-24T01:25:50;10.50;1.40
316;DHT22;14128;48.686;9.738;2022-12-24T01:28:18;10.50;1.40
316;DHT22;14128;48.686;9.738;2022-12-24T01:30:45;10.60;1.40
316;DHT22;14128;48.686;9.738;2022-12-24T01:33:12;10.70;1.40
316;DHT22;14128;48.686;9.738;2022-12-24T01:35:40;10.70;1.40
316;DHT22;14128;48.686;9.738;2022-12-24T01:38:07;10.80;1.40
316;DHT22;14128;48.686;9.738;2022-12-24T01:40:36;10.80;1.40
316;DHT22;14128;48.686;9.738;2022-12-24T01:43:22;10.80;1.40
316;DHT22;14128;48.686;9.738;2022-12-24T01:45:53;10.90;1.40
316;DHT22;14128;48.686;9.738;2022-12-24T01:48:25;10.90;1.40
316;DHT22;14128;48.686;9.738;2022-12-24T01:50:57;10.90;1.40
316;DHT22;14128;48.686;9.738;2022-12-24T01:53:24;11.00;1.40
316;DHT22;14128;48.686;9.738;2022-12-24T01:55:52;10.90;1.40
316;DHT22;14128;48.686;9.738;2022-12-24T01:58:22;10.90;1.40
316;DHT22;14128;48.686;9.738;2022-12-24T02:00:50;11.00;1.40
316;DHT22;14128;48.686;9.738;2022-12-24T02:03:17;11.00;1.40
316;DHT22;14128;48.686;9.738;2022-12-24T02:05:47;10.90;1.40
316;DHT22;14128;48.686;9.738;2022-12-24T02:08:14;10.90;1.40
316;DHT22;14128;48.686;9.738;2022-12-24T02:10:41;10.90;1.40
316;DHT22;14128;48.686;9.738;2022-12-24T02:13:08;11.00;1.40
316;DHT22;14128;48.686;9.738;2022-12-24T02:15:46;11.00;1.40
316;DHT22;14128;48.686;9.738;2022-12-24T02:18:21;11.00;1.40
316;DHT22;14128;48.686;9.738;2022-12-24T02:21:22;10.90;1.40
316;DHT22;14128;48.686;9.738;2022-12-24T02:24:25;11.00;1.40
316;DHT22;14128;48.686;9.738;2022-12-24T02:27:14;10.90;1.40
316;DHT22;14128;48.686;9.738;2022-12-24T02:30:03;10.90;1.40
316;DHT22;14128;48.686;9.738;2022-12-24T02:32:41;10.80;1.40
316;DHT22;14128;48.686;9.738;2022-12-24T02:35:13;10.70;1.40
316;DHT22;14128;48.686;9.738;2022-12-24T02:37:44;10.60;1.40
316;DHT22;14128;48.686;9.738;2022-12-24T02:40:15;10.60;1.40
316;DHT22;14128;48.686;9.738;2022-12-24T02:42:47;10.50;1.40
316;DHT22;14128;48.686;9.738;2022-12-24T02:45:20;10.50;1.40
316;DHT22;14128;48.686;9.738;2022-12-24T02:47:48;10.50;1.40
316;DHT22;14128;48.686;9.738;2022-12-24T02:50:18;10.50;1.40
316;DHT22;14128;48.686;9.738;2022-12-24T02:52:46;10.50;1.40
316;DHT22;14128;48.686;9.738;2022-12-24T02:55:16;10.40;1.40
316;DHT22;14128;48.686;9.738;2022-12-24T02:57:55;10.30;1.40
316;DHT22;14128;48.686;9.738;2022-12-24T03:00:34;10.30;1.40
316;DHT22;14128;48.686;9.738;2022-12-24T03:03:17;10.30;1.40
316;DHT22;14128;48.686;9.738;2022-12-24T03:05:50;10.30;1.40
316;DHT22;14128;48.686;9.738;2022-12-24T03:08:26;10.30;1.40
316;DHT22;14128;48.686;9.738;2022-12-24T03:11:02;10.30;1.40
316;DHT22;14128;48.686;9.738;2022-12-24T03:13:30;10.30;1.40
316;DHT22;14128;48.686;9.738;2022-12-24T03:15:58;10.30;1.40
316;DHT22;14128;48.686;9.738;2022-12-24T03:18:28;10.30;1.40
316;DHT22;14128;48.686;9.738;2022-12-24T03:21:00;10.30;1.40
316;DHT22;14128;48.686;9.738;2022-12-24T03:23:29;10.30;1.40
316;DHT22;14128;48.686;9.738;2022-12-24T03:25:58;10.20;1.40
316;DHT22;14128;48.686;9.738;2022-12-24T03:28:27;10.20;1.40
316;DHT22;14128;48.686;9.738;2022-12-24T03:30:54;10.20;1.40
316;DHT22;14128;48.686;9.738;2022-12-24T03:33:22;10.10;1.40
316;DHT22;14128;48.686;9.738;2022-12-24T03:35:49;10.10;1.40
316;DHT22;14128;48.686;9.738;2022-12-24T03:38:16;10.10;1.40
316;DHT22;14128;48.686;9.738;2022-12-24T03:40:42;10.10;1.40
316;DHT22;14128;48.686;9.738;2022-12-24T03:43:09;10.10;1.40
316;DHT22;14128;48.686;9.738;2022-12-24T03:45:36;10.00;1.40
316;DHT22;14128;48.686;9.738;2022-12-24T03:48:03;10.10;1.40
316;DHT22;14128;48.686;9.738;2022-12-24T03:50:31;10.00;1.40
316;DHT22;14128;48.686;9.738;2022-12-24T03:52:58;10.00;1.40
316;DHT22;14128;48.686;9.738;2022-12-24T03:55:25;9.90;1.40
316;DHT22;14128;48.686;9.738;2022-12-24T03:57:52;9.80;1.40
316;DHT22;14128;48.686;9.738;2022-12-24T04:00:19;9.80;1.40
316;DHT22;14128;48.686;9.738;2022-12-24T04:02:46;9.80;1.40
316;DHT22;14128;48.686;9.738;2022-12-24T04:05:14;9.80;1.40
316;DHT22;14128;48.686;9.738;2022-12-24T04:07:43;9.70;1.40
316;DHT22;14128;48.686;9.738;2022-12-24T04:10:11;9.70;1.40
316;DHT22;14128;48.686;9.738;2022-12-24T04:12:38;9.70;1.40
316;DHT22;14128;48.686;9.738;2022-12-24T04:15:06;9.70;1.40
316;DHT22;14128;48.686;9.738;2022-12-24T04:17:33;9.70;1.40
316;DHT22;14128;48.686;9.738;2022-12-24T04:19:59;9.70;1.40
316;DHT22;14128;48.686;9.738;2022-12-24T04:22:26;9.70;1.40
316;DHT22;14128;48.686;9.738;2022-12-24T04:24:54;9.60;1.40
316;DHT22;14128;48.686;9.738;2022-12-24T04:27:21;9.60;1.40
316;DHT22;14128;48.686;9.738;2022-12-24T04:29:48;9.60;1.40
316;DHT22;14128;48.686;9.738;2022-12-24T04:32:15;9.50;1.40
316;DHT22;14128;48.686;9.738;2022-12-24T04:34:42;9.50;1.40
316;DHT22;14128;48.686;9.738;2022-12-24T04:37:09;9.50;1.40
316;DHT22;14128;48.686;9.738;2022-12-24T04:39:35;9.50;1.40
316;DHT22;14128;48.686;9.738;2022-12-24T04:42:04;9.50;1.40
316;DHT22;14128;48.686;9.738;2022-12-24T04:44:30;9.40;1.40
316;DHT22;14128;48.686;9.738;2022-12-24T04:46:57;9.40;1.40
316;DHT22;14128;48.686;9.738;2022-12-24T04:49:24;9.30;1.40
316;DHT22;14128;48.686;9.738;2022-12-24T04:51:51;9.30;1.40
316;DHT22;14128;48.686;9.738;2022-12-24T04:54:18;9.30;1.40
316;DHT22;14128;48.686;9.738;2022-12-24T04:56:44;9.30;1.40
316;DHT22;14128;48.686;9.738;2022-12-24T04:59:12;9.30;1.40
316;DHT22;14128;48.686;9.738;2022-12-24T05:01:39;9.30;1.40
316;DHT22;14128;48.686;9.738;2022-12-24T05:04:07;9.20;1.40
316;DHT22;14128;48.686;9.738;2022-12-24T05:06:33;9.20;1.40
316;DHT22;14128;48.686;9.738;2022-12-24T05:09:00;9.20;1.40
316;DHT22;14128;48.686;9.738;2022-12-24T05:11:27;9.10;1.40
316;DHT22;14128;48.686;9.738;2022-12-24T05:13:54;9.10;1.40
316;DHT22;14128;48.686;9.738;2022-12-24T05:16:22;9.00;1.40
316;DHT22;14128;48.686;9.738;2022-12-24T05:18:50;9.10;1.40
316;DHT22;14128;48.686;9.738;2022-12-24T05:21:19;8.90;1.40
316;DHT22;14128;48.686;9.738;2022-12-24T05:23:46;8.90;1.40
316;DHT22;14128;48.686;9.738;2022-12-24T05:26:33;8.90;1.40
316;DHT22;14128;48.686;9.738;2022-12-24T05:29:02;8.80;1.40
316;DHT22;14128;48.686;9.738;2022-12-24T05:31:32;8.80;1.40
316;DHT22;14128;48.686;9.738;2022-12-24T05:33:59;8.80;1.40
316;DHT22;14128;48.686;9.738;2022-12-24T05:36:27;8.80;1.40
316;DHT22;14128;48.686;9.738;2022-12-24T05:38:54;8.80;1.40
316;DHT22;14128;48.686;9.738;2022-12-24T05:41:21;8.80;1.40
316;DHT22;14128;48.686;9.738;2022-12-24T05:43:48;8.70;1.40
316;DHT22;14128;48.686;9.738;2022-12-24T05:46:17;8.70;1.40
316;DHT22;14128;48.686;9.738;2022-12-24T05:48:46;8.70;1.40
316;DHT22;14128;48.686;9.738;2022-12-24T05:51:14;8.60;1.40
316;DHT22;14128;48.686;9.738;2022-12-24T05:53:44;8.50;1.40
316;DHT22;14128;48.686;9.738;2022-12-24T05:56:12;8.50;1.40
316;DHT22;14128;48.686;9.738;2022-12-24T05:58:39;8.50;1.40
316;DHT22;14128;48.686;9.738;2022-12-24T06:01:08;8.40;1.40
316;DHT22;14128;48.686;9.738;2022-12-24T06:03:35;8.30;1.40
316;DHT22;14128;48.686;9.738;2022-12-24T06:06:04;8.20;1.40
316;DHT22;14128;48.686;9.738;2022-12-24T06:08:33;8.30;1.40
316;DHT22;14128;48.686;9.738;2022-12-24T06:11:02;8.20;1.40
316;DHT22;14128;48.686;9.738;2022-12-24T06:13:29;8.10;1.40
316;DHT22;14128;48.686;9.738;2022-12-24T06:15:58;8.20;1.40
316;DHT22;14128;48.686;9.738;2022-12-24T06:18:27;8.20;1.40
316;DHT22;14128;48.686;9.738;2022-12-24T06:20:55;8.20;1.40
316;DHT22;14128;48.686;9.738;2022-12-24T06:23:24;8.30;1.40
316;DHT22;14128;48.686;9.738;2022-12-24T06:25:51;8.50;1.40
316;DHT22;14128;48.686;9.738;2022-12-24T06:28:18;8.50;1.40
316;DHT22;14128;48.686;9.738;2022-12-24T06:30:46;8.40;1.40
316;DHT22;14128;48.686;9.738;2022-12-24T06:33:13;8.50;1.40
316;DHT22;14128;48.686;9.738;2022-12-24T06:35:40;8.40;1.40
316;DHT22;14128;48.686;9.738;2022-12-24T06:38:06;8.50;1.40
316;DHT22;14128;48.686;9.738;2022-12-24T06:40:37;8.60;1.40
316;DHT22;14128;48.686;9.738;2022-12-24T06:43:03;8.70;1.40
316;DHT22;14128;48.686;9.738;2022-12-24T06:45:30;8.70;1.40
316;DHT22;14128;48.686;9.738;2022-12-24T06:47:57;8.70;1.40
316;DHT22;14128;48.686;9.738;2022-12-24T06:50:24;8.70;1.40
316;DHT22;14128;48.686;9.738;2022-12-24T06:52:51;8.80;1.40
316;DHT22;14128;48.686;9.738;2022-12-24T06:55:18;8.80;1.40
316;DHT22;14128;48.686;9.738;2022-12-24T06:57:46;8.80;1.40
316;DHT22;14128;48.686;9.738;2022-12-24T07:00:13;8.80;1.40
316;DHT22;14128;48.686;9.738;2022-12-24T07:02:40;8.80;1.40
316;DHT22;14128;48.686;9.738;2022-12-24T07:05:07;8.80;1.40
316;DHT22;14128;48.686;9.738;2022-12-24T07:07:35;8.80;1.40
316;DHT22;14128;48.686;9.738;2022-12-24T07:10:03;8.80;1.40
316;DHT22;14128;48.686;9.738;2022-12-24T07:12:30;8.90;1.40
316;DHT22;14128;48.686;9.738;2022-12-24T07:14:58;8.90;1.40
316;DHT22;14128;48.686;9.738;2022-12-24T07:17:25;9.00;1.40
316;DHT22;14128;48.686;9.738;2022-12-24T07:19:52;9.00;1.40
316;DHT22;14128;48.686;9.738;2022-12-24T07:22:19;9.10;1.40
316;DHT22;14128;48.686;9.738;2022-12-24T07:24:46;9.00;1.40
316;DHT22;14128;48.686;9.738;2022-12-24T07:27:12;9.10;1.40
316;DHT22;14128;48.686;9.738;2022-12-24T07:29:39;9.10;1.40
316;DHT22;14128;48.686;9.738;2022-12-24T07:32:08;9.20;1.40
316;DHT22;14128;48.686;9.738;2022-12-24T07:34:35;9.30;1.40
316;DHT22;14128;48.686;9.738;2022-12-24T07:37:01;9.40;1.40
316;DHT22;14128;48.686;9.738;2022-12-24T07:39:28;9.50;1.40
316;DHT22;14128;48.686;9.738;2022-12-24T07:41:55;9.50;1.40
316;DHT22;14128;48.686;9.738;2022-12-24T07:44:22;9.60;1.40
316;DHT22;14128;48.686;9.738;2022-12-24T07:46:49;9.60;1.40
316;DHT22;14128;48.686;9.738;2022-12-24T07:49:17;9.70;1.40
316;DHT22;14128;48.686;9.738;2022-12-24T07:51:44;9.70;1.40
316;DHT22;14128;48.686;9.738;2022-12-24T07:54:11;9.70;1.40
316;DHT22;14128;48.686;9.738;2022-12-24T07:56:38;9.80;1.40
316;DHT22;14128;48.686;9.738;2022-12-24T07:59:04;9.80;1.40
316;DHT22;14128;48.686;9.738;2022-12-24T08:01:31;9.80;1.40
316;DHT22;14128;48.686;9.738;2022-12-24T08:03:58;9.70;1.40
316;DHT22;14128;48.686;9.738;2022-12-24T08:06:26;9.70;1.40
316;DHT22;14128;48.686;9.738;2022-12-24T08:08:53;9.70;1.40
316;DHT22;14128;48.686;9.738;2022-12-24T08:11:20;9.70;1.40
316;DHT22;14128;48.686;9.738;2022-12-24T08:13:46;9.70;1.40
316;DHT22;14128;48.686;9.738;2022-12-24T08:16:13;9.80;1.40
316;DHT22;14128;48.686;9.738;2022-12-24T08:18:40;9.70;1.40
316;DHT22;14128;48.686;9.738;2022-12-24T08:21:07;9.70;1.40
316;DHT22;14128;48.686;9.738;2022-12-24T08:23:36;9.70;1.40
316;DHT22;14128;48.686;9.738;2022-12-24T08:26:05;9.70;1.40
316;DHT22;14128;48.686;9.738;2022-12-24T08:28:32;9.70;1.40
316;DHT22;14128;48.686;9.738;2022-12-24T08:30:59;9.70;1.40
316;DHT22;14128;48.686;9.738;2022-12-24T08:33:26;9.70;1.40
316;DHT22;14128;48.686;9.738;2022-12-24T08:35:54;9.70;1.40
316;DHT22;14128;48.686;9.738;2022-12-24T08:38:22;9.70;1.40
316;DHT22;14128;48.686;9.738;2022-12-24T08:40:52;9.90;1.40
316;DHT22;14128;48.686;9.738;2022-12-24T08:43:19;10.00;1.40
316;DHT22;14128;48.686;9.738;2022-12-24T08:45:46;10.00;1.40
316;DHT22;14128;48.686;9.738;2022-12-24T08:48:14;10.10;1.40
316;DHT22;14128;48.686;9.738;2022-12-24T08:50:41;10.20;1.40
316;DHT22;14128;48.686;9.738;2022-12-24T08:53:08;10.20;1.40
316;DHT22;14128;48.686;9.738;2022-12-24T08:55:35;10.20;1.40
316;DHT22;14128;48.686;9.738;2022-12-24T08:58:04;10.20;1.40
316;DHT22;14128;48.686;9.738;2022-12-24T09:00:31;10.20;1.40
316;DHT22;14128;48.686;9.738;2022-12-24T09:02:58;10.20;1.40
316;DHT22;14128;48.686;9.738;2022-12-24T09:05:25;10.20;1.40
316;DHT22;14128;48.686;9.738;2022-12-24T09:07:52;10.20;1.40
316;DHT22;14128;48.686;9.738;2022-12-24T09:10:18;10.20;1.40
316;DHT22;14128;48.686;9.738;2022-12-24T09:12:45;10.20;1.40
316;DHT22;14128;48.686;9.738;2022-12-24T09:15:13;10.10;1.40
316;DHT22;14128;48.686;9.738;2022-12-24T09:17:40;10.20;1.40
316;DHT22;14128;48.686;9.738;2022-12-24T09:20:08;10.30;1.40
316;DHT22;14128;48.686;9.738;2022-12-24T09:22:37;10.30;1.40
316;DHT22;14128;48.686;9.738;2022-12-24T09:25:05;10.40;1.40
316;DHT22;14128;48.686;9.738;2022-12-24T09:27:33;10.60;1.40
316;DHT22;14128;48.686;9.738;2022-12-24T09:30:00;10.70;1.40
316;DHT22;14128;48.686;9.738;2022-12-24T09:32:28;10.90;1.40
316;DHT22;14128;48.686;9.738;2022-12-24T09:34:55;10.90;1.40
316;DHT22;14128;48.686;9.738;2022-12-24T09:37:21;11.00;1.40
316;DHT22;14128;48.686;9.738;2022-12-24T09:39:48;11.00;1.40
316;DHT22;14128;48.686;9.738;2022-12-24T09:42:23;11.20;1.40
316;DHT22;14128;48.686;9.738;2022-12-24T09:45:00;11.20;1.40
316;DHT22;14128;48.686;9.738;2022-12-24T09:47:35;11.10;1.40
316;DHT22;14128;48.686;9.738;2022-12-24T09:50:21;11.30;1.40
316;DHT22;14128;48.686;9.738;2022-12-24T09:52:51;11.40;1.40
316;DHT22;14128;48.686;9.738;2022-12-24T09:55:24;11.30;1.40
316;DHT22;14128;48.686;9.738;2022-12-24T09:57:53;11.40;1.40
316;DHT22;14128;48.686;9.738;2022-12-24T10:00:23;11.50;1.40
316;DHT22;14128;48.686;9.738;2022-12-24T10:02:52;11.60;1.40
316;DHT22;14128;48.686;9.738;2022-12-24T10:05:28;11.60;1.40
316;DHT22;14128;48.686;9.738;2022-12-24T10:08:08;11.50;1.40
316;DHT22;14128;48.686;9.738;2022-12-24T10:10:45;11.30;1.40
316;DHT22;14128;48.686;9.738;2022-12-24T10:13:20;11.20;1.40
316;DHT22;14128;48.686;9.738;2022-12-24T10:15:55;11.20;1.40
316;DHT22;14128;48.686;9.738;2022-12-24T10:18:31;11.00;1.40
316;DHT22;14128;48.686;9.738;2022-12-24T10:21:08;11.00;1.40
316;DHT22;14128;48.686;9.738;2022-12-24T10:23:40;11.00;1.40
316;DHT22;14128;48.686;9.738;2022-12-24T10:26:14;10.90;1.40
316;DHT22;14128;48.686;9.738;2022-12-24T10:28:45;10.80;1.40
316;DHT22;14128;48.686;9.738;2022-12-24T10:31:13;10.70;1.40
316;DHT22;14128;48.686;9.738;2022-12-24T10:33:43;10.70;1.40
316;DHT22;14128;48.686;9.738;2022-12-24T10:36:14;10.70;1.40
316;DHT22;14128;48.686;9.738;2022-12-24T10:38:42;10.70;1.40
316;DHT22;14128;48.686;9.738;2022-12-24T10:41:09;10.70;1.40
316;DHT22;14128;48.686;9.738;2022-12-24T10:43:37;10.80;1.40
316;DHT22;14128;48.686;9.738;2022-12-24T10:46:16;10.90;1.40
316;DHT22;14128;48.686;9.738;2022-12-24T10:48:50;10.90;1.40
316;DHT22;14128;48.686;9.738;2022-12-24T10:51:20;11.00;1.40
316;DHT22;14128;48.686;9.738;2022-12-24T10:53:50;11.00;1.40
316;DHT22;14128;48.686;9.738;2022-12-24T10:56:18;11.10;1.40
316;DHT22;14128;48.686;9.738;2022-12-24T10:58:50;11.10;1.40
316;DHT22;14128;48.686;9.738;2022-12-24T11:01:17;11.20;1.40
316;DHT22;14128;48.686;9.738;2022-12-24T11:03:59;11.20;1.40
316;DHT22;14128;48.686;9.738;2022-12-24T11:06:26;11.40;1.40
316;DHT22;14128;48.686;9.738;2022-12-24T11:08:53;11.70;1.40
316;DHT22;14128;48.686;9.738;2022-12-24T11:11:20;11.90;1.40
316;DHT22;14128;48.686;9.738;2022-12-24T11:13:54;12.00;1.40
316;DHT22;14128;48.686;9.738;2022-12-24T11:16:26;12.20;1.40
316;DHT22;14128;48.686;9.738;2022-12-24T11:18:57;12.30;1.40
316;DHT22;14128;48.686;9.738;2022-12-24T11:21:26;12.40;1.40
316;DHT22;14128;48.686;9.738;2022-12-24T11:23:55;12.30;1.40
316;DHT22;14128;48.686;9.738;2022-12-24T11:26:25;12.40;1.40
316;DHT22;14128;48.686;9.738;2022-12-24T11:29:14;12.30;1.40
316;DHT22;14128;48.686;9.738;2022-12-24T11:31:42;12.30;1.40
316;DHT22;14128;48.686;9.738;2022-12-24T11:34:25;12.30;1.40
316;DHT22;14128;48.686;9.738;2022-12-24T11:36:53;12.20;1.40
316;DHT22;14128;48.686;9.738;2022-12-24T11:39:22;12.00;1.40
316;DHT22;14128;48.686;9.738;2022-12-24T11:41:50;11.90;1.40
316;DHT22;14128;48.686;9.738;2022-12-24T11:44:25;12.10;1.40
316;DHT22;14128;48.686;9.738;2022-12-24T11:46:53;12.30;1.40
316;DHT22;14128;48.686;9.738;2022-12-24T11:49:26;12.40;1.40
316;DHT22;14128;48.686;9.738;2022-12-24T11:52:20;12.40;1.40
316;DHT22;14128;48.686;9.738;2022-12-24T11:55:00;12.20;1.40
316;DHT22;14128;48.686;9.738;2022-12-24T11:57:36;12.10;1.40
316;DHT22;14128;48.686;9.738;2022-12-24T12:00:07;12.10;1.40
316;DHT22;14128;48.686;9.738;2022-12-24T12:02:37;11.90;1.40
316;DHT22;14128;48.686;9.738;2022-12-24T12:05:09;11.90;1.40
316;DHT22;14128;48.686;9.738;2022-12-24T12:07:38;11.90;1.40
316;DHT22;14128;48.686;9.738;2022-12-24T12:10:09;12.00;1.40
316;DHT22;14128;48.686;9.738;2022-12-24T12:12:40;12.10;1.40
316;DHT22;14128;48.686;9.738;2022-12-24T12:15:12;12.20;1.40
316;DHT22;14128;48.686;9.738;2022-12-24T12:17:45;12.40;1.40
316;DHT22;14128;48.686;9.738;2022-12-24T12:20:20;12.60;1.40
316;DHT22;14128;48.686;9.738;2022-12-24T12:22:54;12.60;1.40
316;DHT22;14128;48.686;9.738;2022-12-24T12:25:26;12.60;1.40
316;DHT22;14128;48.686;9.738;2022-12-24T12:27:55;12.80;1.40
316;DHT22;14128;48.686;9.738;2022-12-24T12:30:23;12.50;1.40
316;DHT22;14128;48.686;9.738;2022-12-24T12:32:54;12.50;1.40
316;DHT22;14128;48.686;9.738;2022-12-24T12:35:27;12.40;1.40
316;DHT22;14128;48.686;9.738;2022-12-24T12:37:57;12.40;1.40
316;DHT22;14128;48.686;9.738;2022-12-24T12:40:36;12.40;1.40
316;DHT22;14128;48.686;9.738;2022-12-24T12:43:12;12.30;1.40
316;DHT22;14128;48.686;9.738;2022-12-24T12:45:50;12.20;1.40
316;DHT22;14128;48.686;9.738;2022-12-24T12:48:54;12.10;1.40
316;DHT22;14128;48.686;9.738;2022-12-24T12:51:35;11.80;1.40
316;DHT22;14128;48.686;9.738;2022-12-24T12:54:22;11.80;1.40
316;DHT22;14128;48.686;9.738;2022-12-24T12:56:57;11.80;1.40
316;DHT22;14128;48.686;9.738;2022-12-24T12:59:30;11.80;1.40
316;DHT22;14128;48.686;9.738;2022-12-24T13:02:08;12.00;1.40
316;DHT22;14128;48.686;9.738;2022-12-24T13:05:00;12.00;1.40
316;DHT22;14128;48.686;9.738;2022-12-24T13:08:05;12.00;1.40
316;DHT22;14128;48.686;9.738;2022-12-24T13:10:52;11.90;1.40
316;DHT22;14128;48.686;9.738;2022-12-24T13:13:49;11.70;1.40
316;DHT22;14128;48.686;9.738;2022-12-24T13:19:29;11.50;1.40
316;DHT22;14128;48.686;9.738;2022-12-24T13:22:00;11.30;1.40
316;DHT22;14128;48.686;9.738;2022-12-24T13:24:30;11.30;1.40
316;DHT22;14128;48.686;9.738;2022-12-24T13:27:04;11.40;1.40
316;DHT22;14128;48.686;9.738;2022-12-24T13:29:41;11.30;1.40
316;DHT22;14128;48.686;9.738;2022-12-24T13:35:34;11.30;1.40
316;DHT22;14128;48.686;9.738;2022-12-24T13:38:38;11.30;1.40
316;DHT22;14128;48.686;9.738;2022-12-24T13:44:27;11.20;1.40
316;DHT22;14128;48.686;9.738;2022-12-24T13:47:18;11.20;1.40
316;DHT22;14128;48.686;9.738;2022-12-24T13:49:49;11.10;1.40
316;DHT22;14128;48.686;9.738;2022-12-24T13:52:25;11.20;1.40
316;DHT22;14128;48.686;9.738;2022-12-24T13:55:12;11.10;1.40
316;DHT22;14128;48.686;9.738;2022-12-24T13:57:41;11.10;1.40
316;DHT22;14128;48.686;9.738;2022-12-24T14:00:30;11.20;1.40
316;DHT22;14128;48.686;9.738;2022-12-24T14:03:01;11.10;1.40
316;DHT22;14128;48.686;9.738;2022-12-24T14:05:31;11.20;1.40
316;DHT22;14128;48.686;9.738;2022-12-24T14:08:01;11.10;1.40
316;DHT22;14128;48.686;9.738;2022-12-24T14:10:33;11.10;1.40
316;DHT22;14128;48.686;9.738;2022-12-24T14:13:00;11.10;1.40
316;DHT22;14128;48.686;9.738;2022-12-24T14:18:36;11.10;1.40
316;DHT22;14128;48.686;9.738;2022-12-24T14:21:04;11.20;1.40
316;DHT22;14128;48.686;9.738;2022-12-24T14:23:51;11.40;1.40
316;DHT22;14128;48.686;9.738;2022-12-24T14:26:20;11.60;1.40
316;DHT22;14128;48.686;9.738;2022-12-24T14:28:53;11.70;1.40
316;DHT22;14128;48.686;9.738;2022-12-24T14:31:20;11.80;1.40
316;DHT22;14128;48.686;9.738;2022-12-24T14:33:49;11.80;1.40
316;DHT22;14128;48.686;9.738;2022-12-24T14:36:20;11.70;1.40
316;DHT22;14128;48.686;9.738;2022-12-24T14:38:49;11.50;1.40
316;DHT22;14128;48.686;9.738;2022-12-24T14:41:35;11.30;1.40
316;DHT22;14128;48.686;9.738;2022-12-24T14:44:12;11.20;1.40
316;DHT22;14128;48.686;9.738;2022-12-24T14:46:47;11.00;1.40
316;DHT22;14128;48.686;9.738;2022-12-24T14:49:27;10.80;1.40
316;DHT22;14128;48.686;9.738;2022-12-24T14:52:03;10.60;1.40
316;DHT22;14128;48.686;9.738;2022-12-24T14:54:34;10.40;1.40
316;DHT22;14128;48.686;9.738;2022-12-24T14:57:14;10.20;1.40
316;DHT22;14128;48.686;9.738;2022-12-24T14:59:45;10.20;1.40
316;DHT22;14128;48.686;9.738;2022-12-24T15:02:34;10.10;1.40
316;DHT22;14128;48.686;9.738;2022-12-24T15:05:06;10.00;1.40
316;DHT22;14128;48.686;9.738;2022-12-24T15:07:33;9.70;1.40
316;DHT22;14128;48.686;9.738;2022-12-24T15:10:02;9.60;1.40
316;DHT22;14128;48.686;9.738;2022-12-24T15:12:30;9.40;1.40
316;DHT22;14128;48.686;9.738;2022-12-24T15:14:58;9.30;1.40
316;DHT22;14128;48.686;9.738;2022-12-24T15:17:25;9.10;1.40
316;DHT22;14128;48.686;9.738;2022-12-24T15:19:53;8.90;1.40
316;DHT22;14128;48.686;9.738;2022-12-24T15:22:25;8.90;1.40
316;DHT22;14128;48.686;9.738;2022-12-24T15:24:53;8.70;1.40
316;DHT22;14128;48.686;9.738;2022-12-24T15:27:22;8.60;1.40
316;DHT22;14128;48.686;9.738;2022-12-24T15:29:52;8.50;1.40
316;DHT22;14128;48.686;9.738;2022-12-24T15:32:20;8.40;1.40
316;DHT22;14128;48.686;9.738;2022-12-24T15:34:48;8.20;1.40
316;DHT22;14128;48.686;9.738;2022-12-24T15:37:17;8.20;1.40
316;DHT22;14128;48.686;9.738;2022-12-24T15:39:52;8.10;1.40
316;DHT22;14128;48.686;9.738;2022-12-24T15:42:20;8.10;1.40
316;DHT22;14128;48.686;9.738;2022-12-24T15:44:57;8.00;1.40
316;DHT22;14128;48.686;9.738;2022-12-24T15:47:28;8.10;1.40
316;DHT22;14128;48.686;9.738;2022-12-24T15:50:03;8.10;1.40
316;DHT22;14128;48.686;9.738;2022-12-24T15:52:30;8.20;1.40
316;DHT22;14128;48.686;9.738;2022-12-24T15:54:58;8.20;1.40
316;DHT22;14128;48.686;9.738;2022-12-24T15:57:30;8.30;1.40
316;DHT22;14128;48.686;9.738;2022-12-24T15:59:59;8.30;1.40
316;DHT22;14128;48.686;9.738;2022-12-24T16:02:35;8.30;1.40
316;DHT22;14128;48.686;9.738;2022-12-24T16:05:30;8.20;1.40
316;DHT22;14128;48.686;9.738;2022-12-24T16:08:04;8.30;1.40
316;DHT22;14128;48.686;9.738;2022-12-24T16:10:37;8.30;1.40
316;DHT22;14128;48.686;9.738;2022-12-24T16:13:18;8.20;1.40
316;DHT22;14128;48.686;9.738;2022-12-24T16:15:49;8.20;1.40
316;DHT22;14128;48.686;9.738;2022-12-24T16:18:21;8.30;1.40
316;DHT22;14128;48.686;9.738;2022-12-24T16:20:49;8.20;1.40
316;DHT22;14128;48.686;9.738;2022-12-24T16:23:18;8.30;1.40
316;DHT22;14128;48.686;9.738;2022-12-24T16:25:47;8.20;1.40
316;DHT22;14128;48.686;9.738;2022-12-24T16:28:14;8.20;1.40
316;DHT22;14128;48.686;9.738;2022-12-24T16:30:43;8.20;1.40
316;DHT22;14128;48.686;9.738;2022-12-24T16:33:14;8.20;1.40
316;DHT22;14128;48.686;9.738;2022-12-24T16:35:41;8.20;1.40
316;DHT22;14128;48.686;9.738;2022-12-24T16:38:09;8.20;1.40
316;DHT22;14128;48.686;9.738;2022-12-24T16:40:36;8.30;1.40
316;DHT22;14128;48.686;9.738;2022-12-24T16:43:04;8.30;1.40
316;DHT22;14128;48.686;9.738;2022-12-24T16:45:49;8.30;1.40
316;DHT22;14128;48.686;9.738;2022-12-24T16:48:19;8.40;1.40
316;DHT22;14128;48.686;9.738;2022-12-24T16:50:46;8.40;1.40
316;DHT22;14128;48.686;9.738;2022-12-24T16:53:14;8.50;1.40
316;DHT22;14128;48.686;9.738;2022-12-24T16:55:41;8.50;1.40
316;DHT22;14128;48.686;9.738;2022-12-24T16:58:11;8.50;1.40
316;DHT22;14128;48.686;9.738;2022-12-24T17:00:38;8.40;1.40